sensor_id;sensor_type;location;lat;lon;timestamp;pressure;altitude;pressure_sealevel;temperature;humidity
7178;BME280;3630;42.146;24.756;2022-12-18T00:02:18;100084.19;;;11.74;100.00
7178;BME280;3630;42.146;24.756;2022-12-18T00:04:45;100079.94;;;11.76;100.00
7178;BME280;3630;42.146;24.756;2022-12-18T00:07:12;100073.91;;;11.76;100.00
7178;BME280;3630;42.146;24.756;2022-12-18T00:09:39;100079.19;;;11.80;100.00
7178;BME280;3630;42.146;24.756;2022-12-18T00:12:06;100094.56;;;11.79;100.00
7178;BME280;3630;42.146;24.756;2022-12-18T00:14:35;100102.38;;;11.82;100.00
7178;BME280;3630;42.146;24.756;2022-12-18T00:17:02;100106.50;;;11.74;100.00
7178;BME280;3630;42.146;24.756;2022-12-18T00:19:28;100117.50;;;11.68;100.00
7178;BME280;3630;42.146;24.756;2022-12-18T00:21:55;100136.31;;;11.67;100.00
7178;BME280;3630;42.146;24.756;2022-12-18T00:24:23;100127.56;;;11.59;100.00
7178;BME280;3630;42.146;24.756;2022-12-18T00:26:50;100127.66;;;11.62;100.00
7178;BME280;3630;42.146;24.756;2022-12-18T00:29:17;100127.69;;;11.64;100.00
7178;BME280;3630;42.146;24.756;2022-12-18T00:31:45;100136.28;;;11.64;100.00
7178;BME280;3630;42.146;24.756;2022-12-18T00:34:12;100132.00;;;11.65;100.00
7178;BME280;3630;42.146;24.756;2022-12-18T00:36:40;100125.94;;;11.61;100.00
7178;BME280;3630;42.146;24.756;2022-12-18T00:39:08;100141.72;;;11.75;100.00
7178;BME280;3630;42.146;24.756;2022-12-18T00:41:36;100145.25;;;11.81;100.00
7178;BME280;3630;42.146;24.756;2022-12-18T00:44:20;100152.00;;;11.75;100.00
7178;BME280;3630;42.146;24.756;2022-12-18T00:46:48;100139.06;;;11.72;100.00
7178;BME280;3630;42.146;24.756;2022-12-18T00:49:16;100157.25;;;11.79;100.00
7178;BME280;3630;42.146;24.756;2022-12-18T00:51:43;100164.13;;;11.80;100.00
7178;BME280;3630;42.146;24.756;2022-12-18T00:54:10;100174.47;;;11.82;100.00
7178;BME280;3630;42.146;24.756;2022-12-18T00:56:38;100171.88;;;11.80;100.00
7178;BME280;3630;42.146;24.756;2022-12-18T00:59:06;100161.34;;;11.71;100.00
7178;BME280;3630;42.146;24.756;2022-12-18T01:01:36;100138.47;;;11.48;100.00
7178;BME280;3630;42.146;24.756;2022-12-18T01:04:05;100153.06;;;11.49;100.00
7178;BME280;3630;42.146;24.756;2022-12-18T01:06:34;100151.16;;;11.40;100.00
7178;BME280;3630;42.146;24.756;2022-12-18T01:09:01;100151.06;;;11.37;100.00
7178;BME280;3630;42.146;24.756;2022-12-18T01:11:28;100162.97;;;11.32;100.00
7178;BME280;3630;42.146;24.756;2022-12-18T01:13:55;100153.28;;;11.20;100.00
7178;BME280;3630;42.146;24.756;2022-12-18T01:16:24;100161.84;;;11.21;100.00
7178;BME280;3630;42.146;24.756;2022-12-18T01:18:52;100143.66;;;11.13;100.00
7178;BME280;3630;42.146;24.756;2022-12-18T01:21:22;100150.66;;;11.19;100.00
7178;BME280;3630;42.146;24.756;2022-12-18T01:23:52;100154.91;;;11.18;100.00
7178;BME280;3630;42.146;24.756;2022-12-18T01:26:19;100161.91;;;11.22;100.00
7178;BME280;3630;42.146;24.756;2022-12-18T01:28:46;100155.84;;;11.20;100.00
7178;BME280;3630;42.146;24.756;2022-12-18T01:31:16;100156.69;;;11.21;100.00
7178;BME280;3630;42.146;24.756;2022-12-18T01:33:43;100102.81;;;10.91;100.00
7178;BME280;3630;42.146;24.756;2022-12-18T01:36:15;100153.16;;;11.16;100.00
7178;BME280;3630;42.146;24.756;2022-12-18T01:38:43;100157.41;;;11.15;100.00
7178;BME280;3630;42.146;24.756;2022-12-18T01:41:11;100159.97;;;11.15;100.00
7178;BME280;3630;42.146;24.756;2022-12-18T01:43:46;100163.44;;;11.16;100.00
7178;BME280;3630;42.146;24.756;2022-12-18T01:46:14;100158.34;;;11.17;100.00
7178;BME280;3630;42.146;24.756;2022-12-18T01:48:41;100156.63;;;11.18;100.00
7178;BME280;3630;42.146;24.756;2022-12-18T01:51:10;100155.78;;;11.19;100.00
7178;BME280;3630;42.146;24.756;2022-12-18T01:53:39;100159.25;;;11.19;100.00
7178;BME280;3630;42.146;24.756;2022-12-18T01:56:08;100155.91;;;11.23;100.00
7178;BME280;3630;42.146;24.756;2022-12-18T01:58:43;100153.44;;;11.28;100.00
7178;BME280;3630;42.146;24.756;2022-12-18T02:01:13;100163.84;;;11.33;100.00
7178;BME280;3630;42.146;24.756;2022-12-18T02:03:41;100168.25;;;11.38;100.00
7178;BME280;3630;42.146;24.756;2022-12-18T02:06:13;100170.13;;;11.44;100.00
7178;BME280;3630;42.146;24.756;2022-12-18T02:08:48;100161.72;;;11.51;100.00
7178;BME280;3630;42.146;24.756;2022-12-18T02:11:24;100168.00;;;11.63;100.00
7178;BME280;3630;42.146;24.756;2022-12-18T02:13:57;100173.22;;;11.66;100.00
7178;BME280;3630;42.146;24.756;2022-12-18T02:16:34;100172.53;;;11.72;100.00
7178;BME280;3630;42.146;24.756;2022-12-18T02:19:15;100175.91;;;11.69;100.00
7178;BME280;3630;42.146;24.756;2022-12-18T02:21:52;100178.66;;;11.77;100.00
7178;BME280;3630;42.146;24.756;2022-12-18T02:24:28;100189.91;;;11.82;100.00
7178;BME280;3630;42.146;24.756;2022-12-18T02:26:59;100187.31;;;11.80;100.00
7178;BME280;3630;42.146;24.756;2022-12-18T02:29:31;100189.09;;;11.84;100.00
7178;BME280;3630;42.146;24.756;2022-12-18T02:32:00;100189.22;;;11.89;100.00
7178;BME280;3630;42.146;24.756;2022-12-18T02:34:30;100189.25;;;11.91;100.00
7178;BME280;3630;42.146;24.756;2022-12-18T02:37:00;100184.97;;;11.91;100.00
7178;BME280;3630;42.146;24.756;2022-12-18T02:39:29;100174.75;;;11.96;100.00
7178;BME280;3630;42.146;24.756;2022-12-18T02:41:59;100173.03;;;11.95;100.00
7178;BME280;3630;42.146;24.756;2022-12-18T02:44:27;100169.47;;;11.90;100.00
7178;BME280;3630;42.146;24.756;2022-12-18T02:46:54;100171.19;;;11.89;100.00
7178;BME280;3630;42.146;24.756;2022-12-18T02:49:31;100175.41;;;11.87;100.00
7178;BME280;3630;42.146;24.756;2022-12-18T02:52:07;100145.94;;;11.73;100.00
7178;BME280;3630;42.146;24.756;2022-12-18T02:54:47;100180.47;;;11.81;100.00
7178;BME280;3630;42.146;24.756;2022-12-18T02:57:22;100180.47;;;11.81;100.00
7178;BME280;3630;42.146;24.756;2022-12-18T02:59:56;100176.97;;;11.79;100.00
7178;BME280;3630;42.146;24.756;2022-12-18T03:02:27;100184.75;;;11.80;100.00
7178;BME280;3630;42.146;24.756;2022-12-18T03:04:59;100184.75;;;11.82;100.00
7178;BME280;3630;42.146;24.756;2022-12-18T03:07:35;100185.63;;;11.81;100.00
7178;BME280;3630;42.146;24.756;2022-12-18T03:10:05;100188.94;;;11.77;100.00
7178;BME280;3630;42.146;24.756;2022-12-18T03:12:36;100189.75;;;11.74;100.00
7178;BME280;3630;42.146;24.756;2022-12-18T03:15:08;100158.47;;;11.59;100.00
7178;BME280;3630;42.146;24.756;2022-12-18T03:17:36;100185.34;;;11.70;100.00
7178;BME280;3630;42.146;24.756;2022-12-18T03:20:12;100187.81;;;11.67;100.00
7178;BME280;3630;42.146;24.756;2022-12-18T03:22:40;100192.97;;;11.67;100.00
7178;BME280;3630;42.146;24.756;2022-12-18T03:25:11;100196.50;;;11.69;100.00
7178;BME280;3630;42.146;24.756;2022-12-18T03:27:44;100193.81;;;11.66;100.00
7178;BME280;3630;42.146;24.756;2022-12-18T03:30:14;100174.47;;;11.46;100.00
7178;BME280;3630;42.146;24.756;2022-12-18T03:32:46;100193.66;;;11.60;100.00
7178;BME280;3630;42.146;24.756;2022-12-18T03:35:21;100201.38;;;11.59;100.00
7178;BME280;3630;42.146;24.756;2022-12-18T03:37:49;100200.56;;;11.61;100.00
7178;BME280;3630;42.146;24.756;2022-12-18T03:40:16;100208.16;;;11.57;100.00
7178;BME280;3630;42.146;24.756;2022-12-18T03:42:48;100219.38;;;11.59;100.00
7178;BME280;3630;42.146;24.756;2022-12-18T03:45:21;100194.16;;;11.44;100.00
7178;BME280;3630;42.146;24.756;2022-12-18T03:47:59;100231.47;;;11.61;100.00
7178;BME280;3630;42.146;24.756;2022-12-18T03:50:36;100235.66;;;11.59;100.00
7178;BME280;3630;42.146;24.756;2022-12-18T03:53:13;100240.94;;;11.64;100.00
7178;BME280;3630;42.146;24.756;2022-12-18T03:55:43;100249.69;;;11.70;100.00
7178;BME280;3630;42.146;24.756;2022-12-18T03:58:13;100250.56;;;11.71;100.00
7178;BME280;3630;42.146;24.756;2022-12-18T04:00:43;100244.41;;;11.66;100.00
7178;BME280;3630;42.146;24.756;2022-12-18T04:03:11;100251.31;;;11.67;100.00
7178;BME280;3630;42.146;24.756;2022-12-18T04:05:40;100240.06;;;11.62;100.00
7178;BME280;3630;42.146;24.756;2022-12-18T04:08:08;100249.53;;;11.64;100.00
7178;BME280;3630;42.146;24.756;2022-12-18T04:10:36;100251.19;;;11.62;100.00
7178;BME280;3630;42.146;24.756;2022-12-18T04:13:03;100258.00;;;11.59;100.00
7178;BME280;3630;42.146;24.756;2022-12-18T04:15:31;100262.25;;;11.58;100.00
7178;BME280;3630;42.146;24.756;2022-12-18T04:18:01;100255.44;;;11.60;100.00
7178;BME280;3630;42.146;24.756;2022-12-18T04:20:28;100262.97;;;11.53;100.00
7178;BME280;3630;42.146;24.756;2022-12-18T04:22:55;100261.28;;;11.53;100.00
7178;BME280;3630;42.146;24.756;2022-12-18T04:25:22;100261.31;;;11.55;100.00
7178;BME280;3630;42.146;24.756;2022-12-18T04:27:48;100266.44;;;11.53;100.00
7178;BME280;3630;42.146;24.756;2022-12-18T04:30:15;100270.53;;;11.47;100.00
7178;BME280;3630;42.146;24.756;2022-12-18T04:32:44;100279.84;;;11.42;100.00
7178;BME280;3630;42.146;24.756;2022-12-18T04:35:10;100269.38;;;11.34;99.81
7178;BME280;3630;42.146;24.756;2022-12-18T04:37:37;100249.91;;;11.12;99.67
7178;BME280;3630;42.146;24.756;2022-12-18T04:40:05;100280.25;;;11.24;99.13
7178;BME280;3630;42.146;24.756;2022-12-18T04:42:32;100269.84;;;11.19;98.69
7178;BME280;3630;42.146;24.756;2022-12-18T04:44:59;100274.91;;;11.16;98.00
7178;BME280;3630;42.146;24.756;2022-12-18T04:47:26;100275.53;;;11.08;97.90
7178;BME280;3630;42.146;24.756;2022-12-18T04:49:54;100289.94;;;11.01;97.67
7178;BME280;3630;42.146;24.756;2022-12-18T04:52:20;100289.00;;;10.99;97.57
7178;BME280;3630;42.146;24.756;2022-12-18T04:54:47;100294.91;;;10.95;97.04
7178;BME280;3630;42.146;24.756;2022-12-18T04:57:14;100302.44;;;10.89;97.25
7178;BME280;3630;42.146;24.756;2022-12-18T04:59:41;100303.19;;;10.85;97.70
7178;BME280;3630;42.146;24.756;2022-12-18T05:02:08;100310.97;;;10.88;97.55
7178;BME280;3630;42.146;24.756;2022-12-18T05:04:34;100316.88;;;10.84;96.26
7178;BME280;3630;42.146;24.756;2022-12-18T05:07:03;100323.69;;;10.82;96.54
7178;BME280;3630;42.146;24.756;2022-12-18T05:09:29;100325.31;;;10.80;96.50
7178;BME280;3630;42.146;24.756;2022-12-18T05:11:56;100327.00;;;10.78;96.18
7178;BME280;3630;42.146;24.756;2022-12-18T05:14:23;100299.09;;;10.62;95.18
7178;BME280;3630;42.146;24.756;2022-12-18T05:16:50;100329.44;;;10.74;94.56
7178;BME280;3630;42.146;24.756;2022-12-18T05:19:16;100330.16;;;10.70;94.56
7178;BME280;3630;42.146;24.756;2022-12-18T05:21:43;100337.00;;;10.69;95.06
7178;BME280;3630;42.146;24.756;2022-12-18T05:24:11;100343.88;;;10.70;95.50
7178;BME280;3630;42.146;24.756;2022-12-18T05:26:38;100349.03;;;10.70;95.94
7178;BME280;3630;42.146;24.756;2022-12-18T05:29:05;100349.16;;;10.75;96.30
7178;BME280;3630;42.146;24.756;2022-12-18T05:31:32;100347.09;;;10.63;96.53
7178;BME280;3630;42.146;24.756;2022-12-18T05:33:58;100366.34;;;10.76;95.27
7178;BME280;3630;42.146;24.756;2022-12-18T05:36:25;100362.97;;;10.78;95.73
7178;BME280;3630;42.146;24.756;2022-12-18T05:38:52;100375.00;;;10.79;95.59
7178;BME280;3630;42.146;24.756;2022-12-18T05:41:21;100375.09;;;10.82;94.62
7178;BME280;3630;42.146;24.756;2022-12-18T05:43:48;100383.66;;;10.83;94.50
7178;BME280;3630;42.146;24.756;2022-12-18T05:46:16;100381.88;;;10.80;94.22
7178;BME280;3630;42.146;24.756;2022-12-18T05:48:44;100389.59;;;10.80;93.90
7178;BME280;3630;42.146;24.756;2022-12-18T05:51:13;100392.03;;;10.76;93.97
7178;BME280;3630;42.146;24.756;2022-12-18T05:53:41;100402.25;;;10.74;94.63
7178;BME280;3630;42.146;24.756;2022-12-18T05:56:09;100400.72;;;10.79;94.00
7178;BME280;3630;42.146;24.756;2022-12-18T05:58:39;100405.97;;;10.84;93.36
7178;BME280;3630;42.146;24.756;2022-12-18T06:01:07;100409.47;;;10.86;92.59
7178;BME280;3630;42.146;24.756;2022-12-18T06:03:34;100405.88;;;10.81;91.86
7178;BME280;3630;42.146;24.756;2022-12-18T06:06:01;100417.16;;;10.84;91.73
7178;BME280;3630;42.146;24.756;2022-12-18T06:08:28;100416.94;;;10.78;92.01
7178;BME280;3630;42.146;24.756;2022-12-18T06:10:55;100413.56;;;10.79;91.75
7178;BME280;3630;42.146;24.756;2022-12-18T06:13:22;100420.84;;;10.94;91.97
7178;BME280;3630;42.146;24.756;2022-12-18T06:15:50;100414.81;;;10.93;92.13
7178;BME280;3630;42.146;24.756;2022-12-18T06:18:17;100412.44;;;10.99;90.79
7178;BME280;3630;42.146;24.756;2022-12-18T06:20:43;100426.16;;;11.00;89.78
7178;BME280;3630;42.146;24.756;2022-12-18T06:23:10;100425.16;;;10.95;89.61
7178;BME280;3630;42.146;24.756;2022-12-18T06:25:38;100436.38;;;10.97;89.26
7178;BME280;3630;42.146;24.756;2022-12-18T06:28:05;100433.88;;;11.00;88.82
7178;BME280;3630;42.146;24.756;2022-12-18T06:30:32;100446.84;;;11.03;88.32
7178;BME280;3630;42.146;24.756;2022-12-18T06:33:00;100439.84;;;10.99;88.88
7178;BME280;3630;42.146;24.756;2022-12-18T06:35:27;100464.16;;;11.08;87.78
7178;BME280;3630;42.146;24.756;2022-12-18T06:37:53;100459.00;;;11.08;87.15
7178;BME280;3630;42.146;24.756;2022-12-18T06:40:20;100467.69;;;11.12;88.12
7178;BME280;3630;42.146;24.756;2022-12-18T06:42:47;100432.09;;;10.97;87.93
7178;BME280;3630;42.146;24.756;2022-12-18T06:45:14;100476.31;;;11.14;86.58
7178;BME280;3630;42.146;24.756;2022-12-18T06:47:41;100477.22;;;11.16;85.63
7178;BME280;3630;42.146;24.756;2022-12-18T06:50:09;100456.16;;;10.99;86.48
7178;BME280;3630;42.146;24.756;2022-12-18T06:52:36;100484.84;;;11.13;86.55
7178;BME280;3630;42.146;24.756;2022-12-18T06:55:05;100489.31;;;11.18;86.12
7178;BME280;3630;42.146;24.756;2022-12-18T06:57:32;100485.94;;;11.21;86.33
7178;BME280;3630;42.146;24.756;2022-12-18T06:59:59;100497.19;;;11.23;85.89
7178;BME280;3630;42.146;24.756;2022-12-18T07:02:26;100498.09;;;11.25;86.11
7178;BME280;3630;42.146;24.756;2022-12-18T07:04:53;100494.72;;;11.27;86.37
7178;BME280;3630;42.146;24.756;2022-12-18T07:07:21;100500.75;;;11.28;86.50
7178;BME280;3630;42.146;24.756;2022-12-18T07:09:49;100498.13;;;11.26;87.00
7178;BME280;3630;42.146;24.756;2022-12-18T07:12:16;100509.25;;;11.25;85.93
7178;BME280;3630;42.146;24.756;2022-12-18T07:14:42;100510.81;;;11.20;86.18
7178;BME280;3630;42.146;24.756;2022-12-18T07:17:09;100514.13;;;11.16;86.79
7178;BME280;3630;42.146;24.756;2022-12-18T07:19:36;100490.66;;;11.06;86.42
7178;BME280;3630;42.146;24.756;2022-12-18T07:22:03;100517.56;;;11.17;85.93
7178;BME280;3630;42.146;24.756;2022-12-18T07:24:32;100517.28;;;11.08;85.04
7178;BME280;3630;42.146;24.756;2022-12-18T07:26:59;100513.00;;;11.08;86.29
7178;BME280;3630;42.146;24.756;2022-12-18T07:29:25;100517.38;;;11.11;86.07
7178;BME280;3630;42.146;24.756;2022-12-18T07:31:52;100516.47;;;11.09;85.81
7178;BME280;3630;42.146;24.756;2022-12-18T07:34:19;100518.16;;;11.08;84.92
7178;BME280;3630;42.146;24.756;2022-12-18T07:36:46;100529.25;;;11.07;84.98
7178;BME280;3630;42.146;24.756;2022-12-18T07:39:13;100528.41;;;11.07;84.87
7178;BME280;3630;42.146;24.756;2022-12-18T07:41:41;100527.63;;;11.09;84.64
7178;BME280;3630;42.146;24.756;2022-12-18T07:44:11;100537.63;;;11.00;85.06
7178;BME280;3630;42.146;24.756;2022-12-18T07:46:38;100535.19;;;11.05;84.90
7178;BME280;3630;42.146;24.756;2022-12-18T07:49:05;100531.72;;;11.04;84.56
7178;BME280;3630;42.146;24.756;2022-12-18T07:51:32;100547.25;;;11.07;83.88
7178;BME280;3630;42.146;24.756;2022-12-18T07:53:59;100546.44;;;11.08;83.79
7178;BME280;3630;42.146;24.756;2022-12-18T07:56:26;100543.22;;;11.15;83.11
7178;BME280;3630;42.146;24.756;2022-12-18T07:58:54;100556.25;;;11.20;83.66
7178;BME280;3630;42.146;24.756;2022-12-18T08:01:21;100554.50;;;11.19;82.66
7178;BME280;3630;42.146;24.756;2022-12-18T08:03:47;100556.09;;;11.15;82.89
7178;BME280;3630;42.146;24.756;2022-12-18T08:06:14;100575.84;;;11.16;82.35
7178;BME280;3630;42.146;24.756;2022-12-18T08:08:41;100565.66;;;11.19;82.17
7178;BME280;3630;42.146;24.756;2022-12-18T08:11:08;100573.47;;;11.22;81.91
7178;BME280;3630;42.146;24.756;2022-12-18T08:13:35;100579.53;;;11.24;81.57
7178;BME280;3630;42.146;24.756;2022-12-18T08:16:05;100576.16;;;11.25;81.89
7178;BME280;3630;42.146;24.756;2022-12-18T08:18:33;100578.97;;;11.35;81.38
7178;BME280;3630;42.146;24.756;2022-12-18T08:21:07;100591.84;;;11.35;81.20
7178;BME280;3630;42.146;24.756;2022-12-18T08:23:34;100580.84;;;11.40;80.77
7178;BME280;3630;42.146;24.756;2022-12-18T08:26:01;100584.47;;;11.45;80.93
7178;BME280;3630;42.146;24.756;2022-12-18T08:28:28;100598.25;;;11.47;80.55
7178;BME280;3630;42.146;24.756;2022-12-18T08:30:55;100589.63;;;11.45;80.16
7178;BME280;3630;42.146;24.756;2022-12-18T08:33:23;100592.22;;;11.47;80.21
7178;BME280;3630;42.146;24.756;2022-12-18T08:35:50;100591.41;;;11.48;80.35
7178;BME280;3630;42.146;24.756;2022-12-18T08:38:17;100581.91;;;11.45;80.08
7178;BME280;3630;42.146;24.756;2022-12-18T08:40:44;100589.84;;;11.53;79.49
7178;BME280;3630;42.146;24.756;2022-12-18T08:43:10;100592.44;;;11.54;79.82
7178;BME280;3630;42.146;24.756;2022-12-18T08:45:55;100578.69;;;11.54;79.48
7178;BME280;3630;42.146;24.756;2022-12-18T08:48:23;100577.19;;;11.60;79.05
7178;BME280;3630;42.146;24.756;2022-12-18T08:50:54;100587.56;;;11.63;78.73
7178;BME280;3630;42.146;24.756;2022-12-18T08:53:24;100590.28;;;11.68;78.60
7178;BME280;3630;42.146;24.756;2022-12-18T08:55:51;100584.34;;;11.69;77.88
7178;BME280;3630;42.146;24.756;2022-12-18T08:58:18;100573.22;;;11.70;78.30
7178;BME280;3630;42.146;24.756;2022-12-18T09:00:45;100574.72;;;11.65;77.90
7178;BME280;3630;42.146;24.756;2022-12-18T09:03:12;100575.84;;;11.73;78.69
7178;BME280;3630;42.146;24.756;2022-12-18T09:05:41;100570.00;;;11.77;79.01
7178;BME280;3630;42.146;24.756;2022-12-18T09:08:08;100547.78;;;11.80;77.96
7178;BME280;3630;42.146;24.756;2022-12-18T09:10:41;100580.97;;;12.01;76.25
7178;BME280;3630;42.146;24.756;2022-12-18T09:13:09;100574.22;;;12.05;76.95
7178;BME280;3630;42.146;24.756;2022-12-18T09:15:40;100583.47;;;11.98;76.72
7178;BME280;3630;42.146;24.756;2022-12-18T09:18:08;100581.06;;;12.04;76.92
7178;BME280;3630;42.146;24.756;2022-12-18T09:20:38;100580.66;;;11.89;76.29
7178;BME280;3630;42.146;24.756;2022-12-18T09:23:07;100573.78;;;11.90;76.34
7178;BME280;3630;42.146;24.756;2022-12-18T09:25:34;100588.50;;;11.94;76.24
7178;BME280;3630;42.146;24.756;2022-12-18T09:28:04;100586.72;;;11.91;75.64
7178;BME280;3630;42.146;24.756;2022-12-18T09:30:32;100582.13;;;11.81;76.22
7178;BME280;3630;42.146;24.756;2022-12-18T09:32:59;100578.81;;;11.85;75.82
7178;BME280;3630;42.146;24.756;2022-12-18T09:35:26;100576.19;;;11.83;75.65
7178;BME280;3630;42.146;24.756;2022-12-18T09:37:54;100583.06;;;11.84;76.44
7178;BME280;3630;42.146;24.756;2022-12-18T09:40:24;100586.50;;;11.83;76.33
7178;BME280;3630;42.146;24.756;2022-12-18T09:42:54;100585.53;;;11.80;76.43
7178;BME280;3630;42.146;24.756;2022-12-18T09:45:22;100583.59;;;11.73;77.28
7178;BME280;3630;42.146;24.756;2022-12-18T09:47:51;100583.69;;;11.76;76.65
7178;BME280;3630;42.146;24.756;2022-12-18T09:50:23;100575.13;;;11.77;76.77
7178;BME280;3630;42.146;24.756;2022-12-18T09:52:55;100581.06;;;11.74;76.93
7178;BME280;3630;42.146;24.756;2022-12-18T09:55:28;100584.75;;;11.82;76.67
7178;BME280;3630;42.146;24.756;2022-12-18T09:58:00;100576.94;;;11.79;76.46
7178;BME280;3630;42.146;24.756;2022-12-18T10:00:29;100587.34;;;11.84;77.02
7178;BME280;3630;42.146;24.756;2022-12-18T10:02:59;100579.78;;;11.89;76.26
7178;BME280;3630;42.146;24.756;2022-12-18T10:05:35;100583.44;;;11.97;76.12
7178;BME280;3630;42.146;24.756;2022-12-18T10:08:07;100576.69;;;12.02;76.77
7178;BME280;3630;42.146;24.756;2022-12-18T10:10:42;100586.22;;;12.04;76.33
7178;BME280;3630;42.146;24.756;2022-12-18T10:13:19;100587.09;;;12.05;76.29
7178;BME280;3630;42.146;24.756;2022-12-18T10:15:59;100585.41;;;12.07;76.28
7178;BME280;3630;42.146;24.756;2022-12-18T10:18:36;100576.69;;;12.02;76.79
7178;BME280;3630;42.146;24.756;2022-12-18T10:21:11;100580.00;;;11.98;76.41
7178;BME280;3630;42.146;24.756;2022-12-18T10:23:45;100582.53;;;11.95;76.36
7178;BME280;3630;42.146;24.756;2022-12-18T10:26:19;100588.50;;;11.94;76.60
7178;BME280;3630;42.146;24.756;2022-12-18T10:28:46;100580.78;;;11.95;76.30
7178;BME280;3630;42.146;24.756;2022-12-18T10:31:16;100589.22;;;11.90;76.78
7178;BME280;3630;42.146;24.756;2022-12-18T10:33:43;100589.28;;;11.91;76.73
7178;BME280;3630;42.146;24.756;2022-12-18T10:36:10;100594.53;;;11.94;76.56
7178;BME280;3630;42.146;24.756;2022-12-18T10:38:37;100592.75;;;11.92;76.14
7178;BME280;3630;42.146;24.756;2022-12-18T10:41:06;100572.03;;;11.89;75.75
7178;BME280;3630;42.146;24.756;2022-12-18T10:43:38;100599.78;;;11.99;75.15
7178;BME280;3630;42.146;24.756;2022-12-18T10:46:14;100597.03;;;11.93;75.84
7178;BME280;3630;42.146;24.756;2022-12-18T10:48:52;100597.91;;;11.93;75.62
7178;BME280;3630;42.146;24.756;2022-12-18T10:51:22;100591.69;;;11.85;75.33
7178;BME280;3630;42.146;24.756;2022-12-18T10:53:55;100605.44;;;11.86;75.29
7178;BME280;3630;42.146;24.756;2022-12-18T10:56:24;100605.31;;;11.81;75.10
7178;BME280;3630;42.146;24.756;2022-12-18T10:58:58;100614.75;;;11.82;74.89
7178;BME280;3630;42.146;24.756;2022-12-18T11:01:26;100611.31;;;11.81;75.43
7178;BME280;3630;42.146;24.756;2022-12-18T11:04:05;100624.03;;;11.75;75.95
7178;BME280;3630;42.146;24.756;2022-12-18T11:06:55;100629.00;;;11.69;76.41
7178;BME280;3630;42.146;24.756;2022-12-18T11:09:23;100622.00;;;11.67;77.15
7178;BME280;3630;42.146;24.756;2022-12-18T11:11:51;100621.00;;;11.62;77.66
7178;BME280;3630;42.146;24.756;2022-12-18T11:14:22;100624.41;;;11.61;77.63
7178;BME280;3630;42.146;24.756;2022-12-18T11:16:51;100615.56;;;11.53;77.67
7178;BME280;3630;42.146;24.756;2022-12-18T11:19:29;100623.06;;;11.45;78.95
7178;BME280;3630;42.146;24.756;2022-12-18T11:21:57;100622.88;;;11.39;80.34
7178;BME280;3630;42.146;24.756;2022-12-18T11:24:29;100639.72;;;11.30;81.00
7178;BME280;3630;42.146;24.756;2022-12-18T11:26:58;100632.31;;;11.12;82.48
7178;BME280;3630;42.146;24.756;2022-12-18T11:29:35;100643.16;;;11.03;84.71
7178;BME280;3630;42.146;24.756;2022-12-18T11:32:31;100634.22;;;10.92;85.48
7178;BME280;3630;42.146;24.756;2022-12-18T11:35:15;100624.47;;;10.82;86.50
7178;BME280;3630;42.146;24.756;2022-12-18T11:37:47;100636.34;;;10.79;86.55
7178;BME280;3630;42.146;24.756;2022-12-18T11:40:18;100642.41;;;10.81;87.44
7178;BME280;3630;42.146;24.756;2022-12-18T11:42:50;100634.13;;;10.89;86.91
7178;BME280;3630;42.146;24.756;2022-12-18T11:45:28;100641.94;;;10.92;85.80
7178;BME280;3630;42.146;24.756;2022-12-18T11:48:00;100642.97;;;10.97;85.77
7178;BME280;3630;42.146;24.756;2022-12-18T11:50:32;100622.59;;;10.78;85.87
7178;BME280;3630;42.146;24.756;2022-12-18T11:53:00;100643.28;;;10.81;86.21
7178;BME280;3630;42.146;24.756;2022-12-18T11:55:40;100643.38;;;10.84;86.37
7178;BME280;3630;42.146;24.756;2022-12-18T11:58:15;100641.72;;;10.86;86.78
7178;BME280;3630;42.146;24.756;2022-12-18T12:00:51;100639.50;;;10.97;86.33
7178;BME280;3630;42.146;24.756;2022-12-18T12:03:35;100643.97;;;11.02;85.21
7178;BME280;3630;42.146;24.756;2022-12-18T12:06:13;100643.28;;;11.06;83.25
7178;BME280;3630;42.146;24.756;2022-12-18T12:08:53;100646.75;;;11.08;82.00
7178;BME280;3630;42.146;24.756;2022-12-18T12:11:30;100655.50;;;11.13;81.61
7178;BME280;3630;42.146;24.756;2022-12-18T12:14:12;100641.72;;;11.11;79.77
7178;BME280;3630;42.146;24.756;2022-12-18T12:16:49;100651.25;;;11.15;80.51
7178;BME280;3630;42.146;24.756;2022-12-18T12:19:27;100647.78;;;11.13;79.72
7178;BME280;3630;42.146;24.756;2022-12-18T12:22:05;100653.84;;;11.15;78.89
7178;BME280;3630;42.146;24.756;2022-12-18T12:24:48;100643.53;;;11.15;77.37
7178;BME280;3630;42.146;24.756;2022-12-18T12:27:25;100656.22;;;11.09;77.74
7178;BME280;3630;42.146;24.756;2022-12-18T12:30:02;100650.91;;;11.05;76.51
7178;BME280;3630;42.146;24.756;2022-12-18T12:32:44;100657.97;;;11.10;76.54
7178;BME280;3630;42.146;24.756;2022-12-18T12:35:23;100655.69;;;11.19;76.92
7178;BME280;3630;42.146;24.756;2022-12-18T12:38:00;100667.69;;;11.19;76.14
7178;BME280;3630;42.146;24.756;2022-12-18T12:40:34;100666.75;;;11.17;76.18
7178;BME280;3630;42.146;24.756;2022-12-18T12:43:05;100662.28;;;11.11;75.82
7178;BME280;3630;42.146;24.756;2022-12-18T12:45:44;100665.16;;;11.20;76.00
7178;BME280;3630;42.146;24.756;2022-12-18T12:48:28;100680.44;;;11.16;75.77
7178;BME280;3630;42.146;24.756;2022-12-18T12:51:00;100680.50;;;11.17;75.94
7178;BME280;3630;42.146;24.756;2022-12-18T12:53:32;100480.78;;;9.89;74.61
7178;BME280;3630;42.146;24.756;2022-12-18T12:56:01;100695.84;;;11.14;75.05
7178;BME280;3630;42.146;24.756;2022-12-18T12:58:33;100702.09;;;11.22;74.82
7178;BME280;3630;42.146;24.756;2022-12-18T13:01:10;100698.34;;;11.13;74.12
7178;BME280;3630;42.146;24.756;2022-12-18T13:03:51;100710.19;;;11.08;74.77
7178;BME280;3630;42.146;24.756;2022-12-18T13:06:27;100709.25;;;11.06;74.71
7178;BME280;3630;42.146;24.756;2022-12-18T13:08:58;100711.69;;;11.01;74.26
7178;BME280;3630;42.146;24.756;2022-12-18T13:11:35;100721.91;;;11.00;74.44
7178;BME280;3630;42.146;24.756;2022-12-18T13:14:22;100702.91;;;10.96;74.39